createdAt,value
2023-05-04T00:00:01.548Z,4.93
2023-05-04T00:01:01.355Z,8.50
2023-05-04T00:02:01.647Z,5.50
2023-05-04T00:03:01.749Z,5.30
2023-05-04T00:04:01.474Z,4.00
2023-05-04T00:05:01.818Z,2.87
2023-05-04T00:06:01.240Z,3.80
2023-05-04T00:07:01.248Z,4.00
2023-05-04T00:08:01.646Z,4.07
2023-05-04T00:09:01.249Z,4.53
2023-05-04T00:10:01.609Z,6.10
2023-05-04T00:11:01.733Z,4.70
2023-05-04T00:12:01.238Z,4.67
2023-05-04T00:13:01.720Z,4.70
2023-05-04T00:14:01.688Z,6.53
2023-05-04T00:15:01.511Z,5.33
2023-05-04T00:16:01.303Z,3.60
2023-05-04T00:17:01.562Z,3.93
2023-05-04T00:18:01.647Z,5.20
2023-05-04T00:19:01.659Z,10.20
2023-05-04T00:20:01.883Z,4.80
2023-05-04T00:21:01.644Z,3.80
2023-05-04T00:22:02.273Z,4.87
2023-05-04T00:23:01.303Z,5.07
2023-05-04T00:24:01.293Z,3.60
2023-05-04T00:25:01.603Z,5.00
2023-05-04T00:26:01.280Z,4.63
2023-05-04T00:27:01.665Z,4.70
2023-05-04T00:28:01.290Z,4.00
2023-05-04T00:29:01.637Z,4.37
2023-05-04T00:30:01.504Z,4.83
2023-05-04T00:31:01.620Z,7.10
2023-05-04T00:32:01.830Z,5.30
2023-05-04T00:33:01.781Z,3.93
2023-05-04T00:34:01.617Z,5.27
2023-05-04T00:35:01.356Z,5.83
2023-05-04T00:36:02.839Z,5.63
2023-05-04T00:37:01.343Z,5.50
2023-05-04T00:38:03.162Z,4.23
2023-05-04T00:39:01.297Z,4.10
2023-05-04T00:40:01.621Z,5.70
2023-05-04T00:41:01.234Z,6.07
2023-05-04T00:42:01.434Z,5.33
2023-05-04T00:43:01.461Z,6.30
2023-05-04T00:44:02.459Z,7.63
2023-05-04T00:45:01.277Z,9.67
2023-05-04T00:46:01.622Z,6.33
2023-05-04T00:47:02.290Z,7.50
2023-05-04T00:48:02.566Z,6.93
2023-05-04T00:49:01.611Z,6.20
2023-05-04T00:50:02.835Z,6.67
2023-05-04T00:51:02.737Z,9.60
2023-05-04T00:52:03.598Z,6.57
2023-05-04T00:53:06.506Z,6.70
2023-05-04T00:54:01.968Z,6.07
2023-05-04T00:55:02.368Z,6.50
2023-05-04T00:56:02.604Z,6.87
2023-05-04T00:57:02.440Z,6.13
2023-05-04T00:58:02.395Z,5.90
2023-05-04T00:59:01.254Z,4.53
2023-05-04T01:00:01.384Z,7.90
2023-05-04T01:01:02.580Z,5.87
2023-05-04T01:02:01.319Z,5.73
2023-05-04T01:03:01.307Z,10.20
2023-05-04T01:04:01.816Z,10.93
2023-05-04T01:05:01.975Z,9.43
2023-05-04T01:06:12.876Z,9.20
2023-05-04T01:07:12.772Z,10.73
2023-05-04T01:08:06.916Z,7.67
2023-05-04T01:09:07.182Z,10.20
2023-05-04T01:10:09.090Z,10.50
2023-05-04T01:11:09.597Z,18.80
2023-05-04T01:12:06.033Z,21.80
2023-05-04T01:13:06.008Z,19.80
2023-05-04T01:14:02.633Z,14.43
2023-05-04T01:15:02.810Z,12.63
2023-05-04T01:16:02.624Z,13.17
2023-05-04T01:17:04.475Z,8.53
2023-05-04T01:18:02.122Z,9.93
2023-05-04T01:19:02.174Z,7.53
2023-05-04T01:20:02.101Z,7.50
2023-05-04T01:21:01.423Z,9.77
2023-05-04T01:22:01.737Z,5.87
2023-05-04T01:23:02.200Z,5.30
2023-05-04T01:24:01.829Z,4.80
2023-05-04T01:25:01.883Z,6.20
2023-05-04T01:26:13.366Z,6.70
2023-05-04T01:27:05.561Z,5.13
2023-05-04T01:28:08.566Z,5.83
2023-05-04T01:29:10.707Z,4.07
2023-05-04T01:30:07.775Z,9.37
2023-05-04T01:31:02.044Z,5.80
2023-05-04T01:32:02.086Z,4.00
2023-05-04T01:33:02.192Z,5.63
2023-05-04T01:34:02.476Z,10.17
2023-05-04T01:35:01.902Z,11.47
2023-05-04T01:36:01.965Z,8.10
2023-05-04T01:37:01.392Z,7.90
2023-05-04T01:38:01.997Z,11.00
2023-05-04T01:39:03.258Z,16.03
2023-05-04T01:40:01.458Z,16.63
2023-05-04T01:41:01.661Z,12.73
2023-05-04T01:42:01.905Z,13.70
2023-05-04T01:43:01.286Z,10.00
2023-05-04T01:44:01.898Z,13.20
2023-05-04T01:45:01.412Z,9.97
2023-05-04T01:46:01.612Z,4.87
2023-05-04T01:47:01.309Z,5.77
2023-05-04T01:48:01.373Z,4.57
2023-05-04T01:49:01.600Z,5.70
2023-05-04T01:50:02.299Z,4.73
2023-05-04T01:51:01.314Z,4.50
2023-05-04T01:52:01.708Z,4.90
2023-05-04T01:53:01.613Z,5.80
2023-05-04T01:54:01.377Z,6.40
2023-05-04T01:55:01.258Z,6.63
2023-05-04T01:56:01.290Z,4.30
2023-05-04T01:57:01.705Z,3.93
2023-05-04T01:58:01.730Z,5.30
2023-05-04T01:59:01.301Z,4.27
2023-05-04T02:00:01.491Z,5.37
2023-05-04T02:01:01.989Z,6.50
2023-05-04T02:02:01.519Z,4.33
2023-05-04T02:03:01.716Z,5.47
2023-05-04T02:04:01.524Z,4.17
2023-05-04T02:05:01.639Z,3.57
2023-05-04T02:06:01.653Z,3.73
2023-05-04T02:07:01.305Z,2.97
2023-05-04T02:08:01.616Z,4.73
2023-05-04T02:09:01.664Z,3.60
2023-05-04T02:10:01.421Z,5.67
2023-05-04T02:11:01.253Z,3.87
2023-05-04T02:12:01.857Z,5.63
2023-05-04T02:13:01.718Z,4.60
2023-05-04T02:14:01.302Z,6.70
2023-05-04T02:15:01.620Z,12.27
2023-05-04T02:16:01.669Z,5.93
2023-05-04T02:17:01.636Z,4.80
2023-05-04T02:18:01.649Z,3.73
2023-05-04T02:19:01.661Z,6.17
2023-05-04T02:20:01.361Z,4.67
2023-05-04T02:21:01.323Z,3.70
2023-05-04T02:22:01.706Z,5.07
2023-05-04T02:23:01.507Z,6.07
2023-05-04T02:24:01.575Z,5.13
2023-05-04T02:25:01.240Z,7.73
2023-05-04T02:26:01.743Z,6.00
2023-05-04T02:27:01.265Z,8.33
2023-05-04T02:28:01.303Z,6.27
2023-05-04T02:29:01.694Z,5.67
2023-05-04T02:30:01.780Z,9.50
2023-05-04T02:31:01.560Z,8.90
2023-05-04T02:32:01.373Z,5.93
2023-05-04T02:33:01.653Z,4.80
2023-05-04T02:34:01.923Z,6.20
2023-05-04T02:35:01.685Z,2.83
2023-05-04T02:36:01.643Z,4.00
2023-05-04T02:37:01.327Z,4.13
2023-05-04T02:38:01.593Z,4.03
2023-05-04T02:39:01.304Z,6.07
2023-05-04T02:40:01.306Z,2.67
2023-05-04T02:41:01.257Z,3.10
2023-05-04T02:42:01.310Z,3.23
2023-05-04T02:43:01.687Z,3.07
2023-05-04T02:44:01.255Z,2.43
2023-05-04T02:45:01.989Z,8.13
2023-05-04T02:46:01.273Z,8.53
2023-05-04T02:47:01.627Z,10.93
2023-05-04T02:48:01.449Z,9.33
2023-05-04T02:49:01.568Z,3.23
2023-05-04T02:50:01.354Z,2.97
2023-05-04T02:51:02.171Z,1.03
2023-05-04T02:52:01.705Z,1.70
2023-05-04T02:53:01.666Z,2.77
2023-05-04T02:54:01.679Z,2.57
2023-05-04T02:55:01.618Z,3.37
2023-05-04T02:56:01.589Z,4.20
2023-05-04T02:57:01.248Z,4.37
2023-05-04T02:58:01.667Z,5.03
2023-05-04T02:59:01.297Z,6.67
2023-05-04T03:00:01.938Z,5.57
2023-05-04T03:01:01.674Z,6.00
2023-05-04T03:02:01.660Z,3.50
2023-05-04T03:03:01.710Z,4.43
2023-05-04T03:04:01.397Z,3.03
2023-05-04T03:05:01.590Z,4.43
2023-05-04T03:06:01.717Z,2.03
2023-05-04T03:07:01.814Z,2.10
2023-05-04T03:08:01.617Z,2.73
2023-05-04T03:09:01.368Z,2.97
2023-05-04T03:10:01.279Z,2.57
2023-05-04T03:11:01.628Z,1.43
2023-05-04T03:12:01.758Z,2.10
2023-05-04T03:13:01.656Z,3.53
2023-05-04T03:14:01.311Z,3.90
2023-05-04T03:15:01.381Z,2.23
2023-05-04T03:16:01.780Z,2.37
2023-05-04T03:17:01.820Z,2.13
2023-05-04T03:18:01.588Z,1.67
2023-05-04T03:19:01.656Z,1.87
2023-05-04T03:20:01.905Z,1.50
2023-05-04T03:21:01.615Z,1.43
2023-05-04T03:22:01.602Z,2.47
2023-05-04T03:23:01.252Z,2.20
2023-05-04T03:24:01.786Z,1.70
2023-05-04T03:25:01.670Z,1.63
2023-05-04T03:26:01.315Z,1.43
2023-05-04T03:27:01.338Z,2.10
2023-05-04T03:28:01.622Z,1.00
2023-05-04T03:29:01.492Z,2.33
2023-05-04T03:30:01.903Z,2.10
2023-05-04T03:31:01.557Z,3.00
2023-05-04T03:32:01.363Z,2.30
2023-05-04T03:33:01.599Z,2.43
2023-05-04T03:34:01.502Z,4.47
2023-05-04T03:35:03.372Z,2.87
2023-05-04T03:36:01.252Z,3.90
2023-05-04T03:37:01.649Z,3.80
2023-05-04T03:38:01.716Z,3.13
2023-05-04T03:39:01.248Z,3.03
2023-05-04T03:40:01.538Z,3.53
2023-05-04T03:41:01.791Z,4.30
2023-05-04T03:42:01.348Z,4.33
2023-05-04T03:43:01.263Z,3.77
2023-05-04T03:44:01.241Z,3.20
2023-05-04T03:45:03.877Z,4.10
2023-05-04T03:46:01.610Z,3.10
2023-05-04T03:47:01.581Z,3.33
2023-05-04T03:48:01.704Z,3.90
2023-05-04T03:49:01.643Z,2.77
2023-05-04T03:50:01.301Z,3.47
2023-05-04T03:51:02.391Z,2.23
2023-05-04T03:52:01.644Z,2.93
2023-05-04T03:53:01.259Z,4.07
2023-05-04T03:54:01.859Z,2.70
2023-05-04T03:55:01.670Z,3.70
2023-05-04T03:56:02.424Z,3.93
2023-05-04T03:57:01.314Z,2.50
2023-05-04T03:58:01.289Z,2.93
2023-05-04T03:59:01.239Z,2.90
2023-05-04T04:00:01.683Z,3.97
2023-05-04T04:01:01.272Z,3.13
2023-05-04T04:02:01.885Z,1.87
2023-05-04T04:03:01.722Z,4.00
2023-05-04T04:04:01.734Z,3.70
2023-05-04T04:05:01.713Z,4.47
2023-05-04T04:06:01.850Z,3.30
2023-05-04T04:07:01.785Z,3.63
2023-05-04T04:08:01.634Z,3.77
2023-05-04T04:09:01.642Z,4.23
2023-05-04T04:10:01.694Z,4.43
2023-05-04T04:11:01.873Z,3.93
2023-05-04T04:12:01.315Z,3.13
2023-05-04T04:13:02.049Z,5.00
2023-05-04T04:14:01.740Z,4.00
2023-05-04T04:15:01.633Z,3.93
2023-05-04T04:16:01.341Z,4.60
2023-05-04T04:17:01.321Z,4.07
2023-05-04T04:18:01.620Z,4.73
2023-05-04T04:19:01.260Z,5.00
2023-05-04T04:20:01.601Z,4.57
2023-05-04T04:21:01.344Z,5.47
2023-05-04T04:22:01.282Z,4.07
2023-05-04T04:23:01.261Z,5.17
2023-05-04T04:24:01.963Z,4.63
2023-05-04T04:25:01.315Z,5.33
2023-05-04T04:26:01.284Z,5.83
2023-05-04T04:27:01.453Z,4.97
2023-05-04T04:28:01.277Z,5.03
2023-05-04T04:29:01.623Z,4.67
2023-05-04T04:30:01.654Z,4.37
2023-05-04T04:31:02.264Z,5.30
2023-05-04T04:32:01.817Z,6.30
2023-05-04T04:33:01.269Z,6.00
2023-05-04T04:34:01.244Z,5.47
2023-05-04T04:35:01.591Z,5.57
2023-05-04T04:36:01.241Z,4.40
2023-05-04T04:37:01.329Z,6.40
2023-05-04T04:38:03.551Z,5.43
2023-05-04T04:39:01.653Z,5.93
2023-05-04T04:40:01.434Z,4.47
2023-05-04T04:41:01.255Z,4.20
2023-05-04T04:42:01.663Z,5.63
2023-05-04T04:43:01.243Z,4.40
2023-05-04T04:44:01.704Z,4.50
2023-05-04T04:45:01.805Z,4.60
2023-05-04T04:46:01.433Z,4.57
2023-05-04T04:47:01.642Z,4.97
2023-05-04T04:48:01.694Z,3.97
2023-05-04T04:49:01.276Z,4.07
2023-05-04T04:50:01.997Z,4.20
2023-05-04T04:51:01.245Z,3.93
2023-05-04T04:52:01.689Z,4.10
2023-05-04T04:53:01.310Z,3.17
2023-05-04T04:54:01.273Z,3.43
2023-05-04T04:55:01.597Z,3.60
2023-05-04T04:56:01.254Z,4.03
2023-05-04T04:57:01.451Z,3.77
2023-05-04T04:58:01.251Z,5.33
2023-05-04T04:59:01.325Z,4.80
2023-05-04T05:00:01.281Z,5.63
2023-05-04T05:01:02.720Z,3.80
2023-05-04T05:02:01.232Z,4.27
2023-05-04T05:03:02.016Z,3.13
2023-05-04T05:04:01.591Z,4.23
2023-05-04T05:05:01.423Z,2.87
2023-05-04T05:06:01.673Z,2.33
2023-05-04T05:07:01.627Z,4.23
2023-05-04T05:08:01.473Z,3.60
2023-05-04T05:09:01.700Z,4.13
2023-05-04T05:10:02.041Z,2.93
2023-05-04T05:11:01.302Z,3.20
2023-05-04T05:12:01.299Z,3.80
2023-05-04T05:13:01.679Z,4.10
2023-05-04T05:14:01.656Z,3.30
2023-05-04T05:15:01.701Z,5.80
2023-05-04T05:16:01.351Z,3.40
2023-05-04T05:17:01.706Z,3.23
2023-05-04T05:18:01.619Z,3.90
2023-05-04T05:19:01.489Z,3.17
2023-05-04T05:20:01.278Z,3.27
2023-05-04T05:21:01.315Z,4.40
2023-05-04T05:22:01.602Z,5.17
2023-05-04T05:23:01.298Z,3.87
2023-05-04T05:24:01.246Z,3.53
2023-05-04T05:25:01.351Z,3.30
2023-05-04T05:26:03.287Z,2.87
2023-05-04T05:27:01.277Z,3.67
2023-05-04T05:28:01.298Z,4.17
2023-05-04T05:29:01.686Z,3.20
2023-05-04T05:30:03.017Z,2.70
2023-05-04T05:31:01.316Z,3.33
2023-05-04T05:32:01.792Z,4.13
2023-05-04T05:33:01.755Z,3.83
2023-05-04T05:34:01.654Z,3.57
2023-05-04T05:35:01.550Z,3.40
2023-05-04T05:36:01.326Z,3.00
2023-05-04T05:37:01.298Z,4.03
2023-05-04T05:38:01.699Z,4.00
2023-05-04T05:39:01.306Z,2.90
2023-05-04T05:40:01.678Z,3.27
2023-05-04T05:41:01.585Z,4.33
2023-05-04T05:42:02.246Z,5.03
2023-05-04T05:43:01.755Z,3.53
2023-05-04T05:44:01.240Z,4.00
2023-05-04T05:45:01.250Z,4.03
2023-05-04T05:46:01.325Z,3.47
2023-05-04T05:47:01.562Z,3.37
2023-05-04T05:48:01.661Z,3.37
2023-05-04T05:49:01.279Z,3.47
2023-05-04T05:50:01.627Z,2.80
2023-05-04T05:51:01.664Z,3.53
2023-05-04T05:52:01.914Z,4.33
2023-05-04T05:53:01.300Z,4.00
2023-05-04T05:54:01.329Z,2.50
2023-05-04T05:55:02.795Z,2.27
2023-05-04T05:56:01.302Z,3.17
2023-05-04T05:57:01.308Z,2.50
2023-05-04T05:58:01.329Z,2.00
2023-05-04T05:59:01.331Z,2.40
2023-05-04T06:00:01.399Z,2.53
2023-05-04T06:01:01.245Z,2.90
2023-05-04T06:02:01.649Z,3.30
2023-05-04T06:03:01.695Z,2.20
2023-05-04T06:04:01.452Z,1.87
2023-05-04T06:05:01.383Z,2.13
2023-05-04T06:06:01.245Z,1.70
2023-05-04T06:07:01.303Z,2.20
2023-05-04T06:08:01.251Z,1.17
2023-05-04T06:09:01.252Z,2.77
2023-05-04T06:10:01.629Z,2.40
2023-05-04T06:11:01.767Z,2.03
2023-05-04T06:12:01.633Z,2.20
2023-05-04T06:13:01.674Z,2.80
2023-05-04T06:14:01.869Z,2.43
2023-05-04T06:15:01.578Z,2.20
2023-05-04T06:16:01.337Z,2.57
2023-05-04T06:17:01.336Z,1.37
2023-05-04T06:18:01.321Z,2.70
2023-05-04T06:19:01.297Z,1.97
2023-05-04T06:20:01.315Z,2.33
2023-05-04T06:21:01.299Z,1.83
2023-05-04T06:22:01.626Z,1.97
2023-05-04T06:23:01.354Z,2.67
2023-05-04T06:24:01.557Z,3.00
2023-05-04T06:25:05.870Z,2.10
2023-05-04T06:26:01.550Z,1.53
2023-05-04T06:27:01.609Z,1.93
2023-05-04T06:28:01.312Z,1.80
2023-05-04T06:29:01.640Z,2.27
2023-05-04T06:30:01.962Z,2.00
2023-05-04T06:31:01.722Z,3.00
2023-05-04T06:32:01.283Z,1.67
2023-05-04T06:33:01.257Z,2.30
2023-05-04T06:34:01.600Z,2.67
2023-05-04T06:35:01.610Z,2.53
2023-05-04T06:36:01.678Z,3.17
2023-05-04T06:37:01.669Z,2.00
2023-05-04T06:38:01.265Z,2.57
2023-05-04T06:39:01.603Z,2.77
2023-05-04T06:40:01.249Z,2.00
2023-05-04T06:41:01.407Z,2.30
2023-05-04T06:42:01.294Z,2.07
2023-05-04T06:43:01.864Z,2.70
2023-05-04T06:44:01.242Z,2.93
2023-05-04T06:45:01.499Z,1.97
2023-05-04T06:46:01.800Z,2.03
2023-05-04T06:47:01.795Z,2.00
2023-05-04T06:48:01.352Z,2.70
2023-05-04T06:49:01.295Z,1.87
2023-05-04T06:50:05.540Z,1.90
2023-05-04T06:51:02.840Z,2.13
2023-05-04T06:52:01.614Z,2.00
2023-05-04T06:53:03.002Z,1.70
2023-05-04T06:54:01.551Z,2.30
2023-05-04T06:55:01.367Z,1.90
2023-05-04T06:56:01.573Z,2.37
2023-05-04T06:57:01.626Z,1.37
2023-05-04T06:58:02.995Z,1.57
2023-05-04T06:59:01.355Z,1.23
2023-05-04T07:00:02.042Z,1.73
2023-05-04T07:01:01.613Z,1.60
2023-05-04T07:02:01.615Z,1.93
2023-05-04T07:03:01.428Z,1.67
2023-05-04T07:04:01.343Z,2.00
2023-05-04T07:05:01.607Z,2.10
2023-05-04T07:06:01.601Z,2.07
2023-05-04T07:07:01.249Z,2.27
2023-05-04T07:08:01.622Z,1.80
2023-05-04T07:09:01.411Z,1.33
2023-05-04T07:10:01.379Z,1.70
2023-05-04T07:11:01.260Z,1.13
2023-05-04T07:12:01.605Z,1.00
2023-05-04T07:13:01.342Z,2.70
2023-05-04T07:14:01.580Z,0.93
2023-05-04T07:15:01.647Z,0.90
2023-05-04T07:16:01.350Z,1.47
2023-05-04T07:17:01.623Z,1.20
2023-05-04T07:18:01.697Z,0.87
2023-05-04T07:19:01.629Z,1.83
2023-05-04T07:20:02.393Z,1.07
2023-05-04T07:21:16.357Z,1.57
2023-05-04T07:22:01.266Z,1.00
2023-05-04T07:23:01.245Z,0.90
2023-05-04T07:24:01.284Z,1.00
2023-05-04T07:25:01.903Z,1.20
2023-05-04T07:26:01.254Z,0.83
2023-05-04T07:27:01.242Z,0.87
2023-05-04T07:28:01.255Z,0.87
2023-05-04T07:29:01.594Z,1.20
2023-05-04T07:30:02.283Z,0.73
2023-05-04T07:31:02.113Z,0.80
2023-05-04T07:32:01.979Z,0.17
2023-05-04T07:33:01.386Z,0.37
2023-05-04T07:34:01.763Z,0.23
2023-05-04T07:35:01.246Z,0.13
2023-05-04T07:36:01.647Z,0.00
2023-05-04T07:37:03.431Z,0.87
2023-05-04T07:38:02.077Z,0.43
2023-05-04T07:39:01.245Z,0.00
2023-05-04T07:40:01.786Z,0.57
2023-05-04T07:41:01.714Z,0.00
2023-05-04T07:42:02.146Z,0.00
2023-05-04T07:43:01.285Z,0.00
2023-05-04T07:44:01.321Z,0.00
2023-05-04T07:45:01.334Z,0.00
2023-05-04T07:46:01.357Z,0.00
2023-05-04T07:47:02.035Z,0.00
2023-05-04T07:48:01.629Z,0.13
2023-05-04T07:49:01.283Z,0.00
2023-05-04T07:50:01.383Z,0.00
2023-05-04T07:51:01.620Z,0.00
2023-05-04T07:52:02.943Z,0.00
2023-05-04T07:53:01.649Z,0.00
2023-05-04T07:54:01.291Z,0.00
2023-05-04T07:55:01.645Z,0.00
2023-05-04T07:56:07.903Z,0.00
2023-05-04T07:57:01.737Z,0.00
2023-05-04T07:58:01.716Z,0.00
2023-05-04T07:59:01.556Z,0.00
2023-05-04T08:00:01.633Z,0.00
2023-05-04T08:01:01.243Z,0.00
2023-05-04T08:02:01.317Z,0.00
2023-05-04T08:03:01.246Z,0.00
2023-05-04T08:04:01.897Z,0.00
2023-05-04T08:05:01.250Z,0.00
2023-05-04T08:06:01.281Z,0.00
2023-05-04T08:07:01.601Z,0.00
2023-05-04T08:08:01.831Z,0.00
2023-05-04T08:09:01.658Z,0.00
2023-05-04T08:10:01.625Z,0.00
2023-05-04T08:11:15.753Z,0.00
2023-05-04T08:12:01.277Z,0.00
2023-05-04T08:13:01.341Z,0.00
2023-05-04T08:14:01.636Z,0.00
2023-05-04T08:15:02.101Z,0.00
2023-05-04T08:16:01.582Z,0.00
2023-05-04T08:17:01.268Z,0.00
2023-05-04T08:18:01.332Z,0.00
2023-05-04T08:19:01.773Z,0.00
2023-05-04T08:20:01.600Z,0.00
2023-05-04T08:21:01.583Z,0.00
2023-05-04T08:22:01.292Z,0.00
2023-05-04T08:23:01.246Z,0.00
2023-05-04T08:24:01.317Z,0.00
2023-05-04T08:25:01.390Z,0.00
2023-05-04T08:26:02.233Z,0.00
2023-05-04T08:27:07.798Z,0.00
2023-05-04T08:28:01.312Z,0.00
2023-05-04T08:29:05.980Z,0.00
2023-05-04T08:30:01.269Z,0.00
2023-05-04T08:31:01.595Z,0.00
2023-05-04T08:32:01.432Z,0.00
2023-05-04T08:33:01.323Z,0.00
2023-05-04T08:34:01.510Z,0.00
2023-05-04T08:35:01.763Z,0.00
2023-05-04T08:36:03.110Z,0.00
2023-05-04T08:37:01.858Z,0.00
2023-05-04T08:38:01.326Z,0.00
2023-05-04T08:39:01.251Z,0.00
2023-05-04T08:40:01.920Z,0.00
2023-05-04T08:41:02.738Z,0.00
2023-05-04T08:42:01.335Z,0.00
2023-05-04T08:43:02.685Z,0.00
2023-05-04T08:44:05.409Z,0.00
2023-05-04T08:45:01.650Z,0.00
2023-05-04T08:46:01.829Z,0.00
2023-05-04T08:47:02.408Z,0.00
2023-05-04T08:48:01.799Z,0.00
2023-05-04T08:49:01.287Z,0.00
2023-05-04T08:50:01.377Z,0.00
2023-05-04T08:51:02.790Z,0.00
2023-05-04T08:52:06.410Z,0.00
2023-05-04T08:53:04.730Z,0.00
2023-05-04T08:54:05.280Z,0.00
2023-05-04T08:55:02.240Z,0.00
2023-05-04T08:56:02.602Z,0.00
2023-05-04T08:57:03.872Z,0.00
2023-05-04T08:58:05.826Z,0.00
2023-05-04T08:59:01.676Z,0.00
2023-05-04T09:00:02.191Z,0.00
2023-05-04T09:01:01.861Z,0.00
2023-05-04T09:02:01.924Z,0.00
2023-05-04T09:03:03.204Z,0.00
2023-05-04T09:04:03.473Z,0.00
2023-05-04T09:05:01.861Z,0.00
2023-05-04T09:06:01.901Z,0.00
2023-05-04T09:07:01.720Z,0.00
2023-05-04T09:08:01.703Z,0.00
2023-05-04T09:09:01.455Z,0.00
2023-05-04T09:10:02.932Z,0.00
2023-05-04T09:11:02.315Z,0.00
2023-05-04T09:12:01.615Z,0.00
2023-05-04T09:13:01.851Z,0.00
2023-05-04T09:14:01.323Z,0.00
2023-05-04T09:15:11.197Z,0.00
2023-05-04T09:16:01.788Z,0.00
2023-05-04T09:17:02.782Z,0.00
2023-05-04T09:18:04.226Z,0.00
2023-05-04T09:19:02.631Z,0.00
2023-05-04T09:20:02.294Z,0.00
2023-05-04T09:21:01.656Z,0.00
2023-05-04T09:22:02.027Z,0.00
2023-05-04T09:23:02.603Z,0.00
2023-05-04T09:24:01.247Z,0.53
2023-05-04T09:25:05.919Z,0.00
2023-05-04T09:26:01.292Z,0.00
2023-05-04T09:27:09.972Z,0.00
2023-05-04T09:28:01.322Z,0.00
2023-05-04T09:29:10.812Z,0.00
2023-05-04T09:30:01.615Z,0.00
2023-05-04T09:31:02.214Z,0.30
2023-05-04T09:32:03.062Z,0.00
2023-05-04T09:33:01.789Z,0.00
2023-05-04T09:34:07.793Z,0.00
2023-05-04T09:35:01.407Z,0.00
2023-05-04T09:36:12.742Z,0.13
2023-05-04T09:37:02.976Z,0.00
2023-05-04T09:38:01.651Z,0.00
2023-05-04T09:39:11.189Z,0.00
2023-05-04T09:40:01.320Z,0.00
2023-05-04T09:41:01.247Z,0.00
2023-05-04T09:42:01.610Z,0.00
2023-05-04T09:43:01.770Z,0.00
2023-05-04T09:44:01.681Z,0.00
2023-05-04T09:45:03.546Z,0.00
2023-05-04T09:46:01.406Z,0.00
2023-05-04T09:47:01.304Z,0.00
2023-05-04T09:48:01.346Z,0.00
2023-05-04T09:49:01.549Z,0.00
2023-05-04T09:50:12.771Z,0.00
2023-05-04T09:51:02.098Z,0.00
2023-05-04T09:52:03.214Z,0.00
2023-05-04T09:53:04.012Z,0.00
2023-05-04T09:54:02.420Z,0.00
2023-05-04T09:55:02.817Z,0.00
2023-05-04T09:56:08.375Z,0.00
2023-05-04T09:57:09.174Z,0.00
2023-05-04T09:58:02.033Z,0.00
2023-05-04T09:59:01.978Z,0.00
2023-05-04T10:00:02.419Z,0.00
2023-05-04T10:01:02.182Z,0.67
2023-05-04T10:02:07.582Z,0.00
2023-05-04T10:03:04.633Z,0.33
2023-05-04T10:04:01.891Z,0.63
2023-05-04T10:05:03.923Z,0.00
2023-05-04T10:06:03.950Z,0.00
2023-05-04T10:07:03.359Z,0.00
2023-05-04T10:08:02.346Z,0.10
2023-05-04T10:09:01.681Z,0.00
2023-05-04T10:10:01.903Z,0.00
2023-05-04T10:11:01.258Z,0.00
2023-05-04T10:12:02.761Z,0.53
2023-05-04T10:13:01.267Z,0.17
2023-05-04T10:14:01.289Z,2.73
2023-05-04T10:15:01.467Z,1.17
2023-05-04T10:16:19.370Z,0.00
2023-05-04T10:17:13.749Z,0.00
2023-05-04T10:18:14.045Z,0.03
2023-05-04T10:19:19.088Z,0.90
2023-05-04T10:20:10.982Z,0.07
2023-05-04T10:21:16.379Z,0.83
2023-05-04T10:22:17.578Z,0.00
2023-05-04T10:23:15.778Z,0.50
2023-05-04T10:24:19.548Z,0.00
2023-05-04T10:25:20.709Z,0.00
2023-05-04T10:26:20.733Z,0.00
2023-05-04T10:27:05.174Z,0.00
2023-05-04T10:28:14.237Z,0.00
2023-05-04T10:29:11.496Z,0.23
2023-05-04T10:30:02.996Z,0.00
2023-05-04T10:31:01.768Z,0.30
2023-05-04T10:32:02.004Z,0.00
2023-05-04T10:33:01.785Z,0.00
2023-05-04T10:34:01.905Z,0.00
2023-05-04T10:35:05.629Z,0.00
2023-05-04T10:36:01.365Z,0.00
2023-05-04T10:37:02.311Z,0.00
2023-05-04T10:38:02.843Z,0.00
2023-05-04T10:39:01.266Z,0.00
2023-05-04T10:40:01.318Z,0.87
2023-05-04T10:41:12.758Z,0.00
2023-05-04T10:42:02.706Z,0.00
2023-05-04T10:43:01.681Z,0.90
2023-05-04T10:44:03.215Z,0.00
2023-05-04T10:45:01.332Z,0.00
2023-05-04T10:46:01.325Z,0.33
2023-05-04T10:47:03.710Z,0.33
2023-05-04T10:48:01.505Z,1.00
2023-05-04T10:49:01.352Z,0.27
2023-05-04T10:50:03.068Z,0.00
2023-05-04T10:51:01.626Z,0.00
2023-05-04T10:52:10.103Z,0.80
2023-05-04T10:53:01.251Z,0.47
2023-05-04T10:54:01.263Z,0.00
2023-05-04T10:55:02.458Z,0.00
2023-05-04T10:56:01.361Z,0.67
2023-05-04T10:57:04.225Z,0.00
2023-05-04T10:58:01.299Z,0.00
2023-05-04T10:59:08.300Z,0.00
2023-05-04T11:00:01.249Z,0.00
2023-05-04T11:01:10.987Z,0.47
2023-05-04T11:02:02.016Z,0.33
2023-05-04T11:03:02.906Z,0.33
2023-05-04T11:04:01.357Z,0.00
2023-05-04T11:05:02.780Z,0.90
2023-05-04T11:06:01.745Z,0.70
2023-05-04T11:07:02.747Z,0.80
2023-05-04T11:08:15.084Z,0.53
2023-05-04T11:09:02.442Z,0.67
2023-05-04T11:10:02.883Z,0.00
2023-05-04T11:11:02.129Z,0.00
2023-05-04T11:12:01.342Z,0.07
2023-05-04T11:13:05.332Z,0.27
2023-05-04T11:14:02.093Z,0.00
2023-05-04T11:15:06.857Z,0.43
2023-05-04T11:16:01.649Z,0.00
2023-05-04T11:17:20.235Z,0.23
2023-05-04T11:18:01.322Z,0.77
2023-05-04T11:19:07.202Z,0.77
2023-05-04T11:20:01.337Z,0.53
2023-05-04T11:21:02.211Z,0.23
2023-05-04T11:22:01.864Z,0.87
2023-05-04T11:23:01.351Z,0.30
2023-05-04T11:24:01.298Z,0.83
2023-05-04T11:25:01.385Z,0.70
2023-05-04T11:26:05.910Z,0.73
2023-05-04T11:27:01.245Z,1.03
2023-05-04T11:28:01.637Z,0.97
2023-05-04T11:29:10.733Z,2.37
2023-05-04T11:30:03.230Z,1.90
2023-05-04T11:31:11.502Z,0.73
2023-05-04T11:32:01.600Z,0.70
2023-05-04T11:33:09.327Z,0.10
2023-05-04T11:34:01.350Z,0.20
2023-05-04T11:35:01.821Z,0.00
2023-05-04T11:36:01.342Z,0.30
2023-05-04T11:37:03.784Z,0.00
2023-05-04T11:38:01.480Z,0.60
2023-05-04T11:39:01.436Z,0.20
2023-05-04T11:40:01.398Z,0.47
2023-05-04T11:41:01.284Z,0.43
2023-05-04T11:42:04.857Z,0.00
2023-05-04T11:43:02.417Z,0.70
2023-05-04T11:44:02.698Z,0.60
2023-05-04T11:45:01.934Z,0.00
2023-05-04T11:46:01.952Z,0.27
2023-05-04T11:47:01.750Z,0.00
2023-05-04T11:48:02.098Z,0.20
2023-05-04T11:49:02.867Z,0.47
2023-05-04T11:50:02.010Z,0.00
2023-05-04T11:51:02.000Z,1.27
2023-05-04T11:52:05.807Z,0.63
2023-05-04T11:53:04.053Z,0.00
2023-05-04T11:54:01.471Z,0.00
2023-05-04T11:55:02.387Z,0.00
2023-05-04T11:56:01.953Z,0.63
2023-05-04T11:57:01.394Z,0.10
2023-05-04T11:58:03.443Z,0.00
2023-05-04T11:59:07.442Z,0.00
2023-05-04T12:00:01.412Z,0.00
2023-05-04T12:01:01.659Z,0.63
2023-05-04T12:02:01.639Z,0.30
2023-05-04T12:03:01.375Z,0.00
2023-05-04T12:04:01.653Z,0.03
2023-05-04T12:05:02.213Z,0.03
2023-05-04T12:06:01.921Z,0.37
2023-05-04T12:07:06.055Z,0.00
2023-05-04T12:08:02.228Z,0.00
2023-05-04T12:09:02.961Z,0.00
2023-05-04T12:10:01.631Z,0.00
2023-05-04T12:11:11.246Z,0.00
2023-05-04T12:12:01.652Z,0.00
2023-05-04T12:13:01.988Z,0.00
2023-05-04T12:14:03.202Z,0.00
2023-05-04T12:15:01.734Z,0.63
2023-05-04T12:16:09.637Z,0.00
2023-05-04T12:17:01.724Z,0.00
2023-05-04T12:18:03.021Z,0.00
2023-05-04T12:19:03.190Z,0.40
2023-05-04T12:20:01.325Z,0.00
2023-05-04T12:21:08.287Z,0.00
2023-05-04T12:22:01.291Z,0.00
2023-05-04T12:23:05.489Z,0.00
2023-05-04T12:24:02.303Z,0.37
2023-05-04T12:25:01.246Z,0.00
2023-05-04T12:26:01.887Z,0.00
2023-05-04T12:27:01.547Z,0.00
2023-05-04T12:28:02.071Z,0.00
2023-05-04T12:29:01.310Z,0.20
2023-05-04T12:30:01.256Z,0.00
2023-05-04T12:31:01.807Z,0.00
2023-05-04T12:32:01.297Z,0.00
2023-05-04T12:33:01.309Z,0.00
2023-05-04T12:34:01.633Z,0.00
2023-05-04T12:35:01.681Z,0.00
2023-05-04T12:36:02.425Z,0.00
2023-05-04T12:37:01.288Z,0.00
2023-05-04T12:38:01.546Z,0.00
2023-05-04T12:39:01.347Z,0.00
2023-05-04T12:40:01.625Z,0.00
2023-05-04T12:41:01.648Z,0.00
2023-05-04T12:42:01.545Z,0.00
2023-05-04T12:43:01.303Z,0.00
2023-05-04T12:44:01.628Z,0.00
2023-05-04T12:45:01.526Z,0.00
2023-05-04T12:46:01.717Z,0.00
2023-05-04T12:47:01.388Z,0.00
2023-05-04T12:48:02.304Z,0.00
2023-05-04T12:49:01.670Z,0.00
2023-05-04T12:50:01.331Z,0.00
2023-05-04T12:51:01.971Z,0.07
2023-05-04T12:52:01.477Z,0.00
2023-05-04T12:53:01.284Z,0.00
2023-05-04T12:54:01.653Z,0.00
2023-05-04T12:55:01.265Z,0.00
2023-05-04T12:56:01.274Z,0.00
2023-05-04T12:57:01.299Z,0.00
2023-05-04T12:58:02.079Z,0.00
2023-05-04T12:59:01.293Z,0.00
2023-05-04T13:00:02.748Z,0.00
2023-05-04T13:01:02.371Z,0.00
2023-05-04T13:02:01.240Z,0.00
2023-05-04T13:03:02.016Z,0.00
2023-05-04T13:04:01.306Z,1.23
2023-05-04T13:05:01.636Z,8.70
2023-05-04T13:06:01.608Z,0.00
2023-05-04T13:07:01.259Z,0.00
2023-05-04T13:08:01.251Z,0.00
2023-05-04T13:09:01.243Z,0.00
2023-05-04T13:10:01.321Z,0.00
2023-05-04T13:11:01.846Z,0.00
2023-05-04T13:12:01.558Z,0.00
2023-05-04T13:13:01.402Z,0.00
2023-05-04T13:14:01.457Z,0.00
2023-05-04T13:15:01.254Z,0.00
2023-05-04T13:16:01.648Z,0.00
2023-05-04T13:17:01.253Z,0.00